createdAt,value
2022-08-12T00:00:18.409Z,21.50
2022-08-12T00:03:03.718Z,21.50
2022-08-12T00:06:03.882Z,21.50
2022-08-12T00:08:53.378Z,21.50
2022-08-12T00:11:39.562Z,21.50
2022-08-12T00:14:24.998Z,21.40
2022-08-12T00:17:10.310Z,21.50
2022-08-12T00:19:55.740Z,21.40
2022-08-12T00:22:41.344Z,21.40
2022-08-12T00:26:05.722Z,21.40
2022-08-12T00:28:32.614Z,21.40
2022-08-12T00:31:18.054Z,21.30
2022-08-12T00:34:03.366Z,21.30
2022-08-12T00:36:51.071Z,21.30
2022-08-12T00:39:37.150Z,21.30
2022-08-12T00:42:13.089Z,21.30
2022-08-12T00:44:44.917Z,21.30
2022-08-12T00:47:25.089Z,21.40
2022-08-12T00:49:53.757Z,21.40
2022-08-12T00:52:20.625Z,21.50
2022-08-12T00:54:48.648Z,21.50
2022-08-12T00:57:17.559Z,21.50
2022-08-12T00:59:46.207Z,21.50
2022-08-12T01:02:15.527Z,21.50
2022-08-12T01:05:02.219Z,21.50
2022-08-12T01:07:47.990Z,21.50
2022-08-12T01:10:33.487Z,21.50
2022-08-12T01:13:10.044Z,21.60
2022-08-12T01:15:47.822Z,21.60
2022-08-12T01:18:14.922Z,21.70
2022-08-12T01:20:52.020Z,21.70
2022-08-12T01:23:38.008Z,21.80
2022-08-12T01:26:06.842Z,21.80
2022-08-12T01:28:34.874Z,21.90
2022-08-12T01:31:04.597Z,21.90
2022-08-12T01:33:37.487Z,22.00
2022-08-12T01:36:08.432Z,22.00
2022-08-12T01:38:36.413Z,22.00
2022-08-12T01:41:04.631Z,22.10
2022-08-12T01:43:32.264Z,22.10
2022-08-12T01:46:29.738Z,22.20
2022-08-12T01:49:07.353Z,22.20
2022-08-12T01:52:15.917Z,22.20
2022-08-12T01:54:30.282Z,22.20
2022-08-12T01:57:57.647Z,22.20
2022-08-12T02:03:53.190Z,22.30
2022-08-12T02:06:46.394Z,22.40
2022-08-12T02:09:33.018Z,22.40
2022-08-12T02:11:59.683Z,22.40
2022-08-12T02:14:40.675Z,22.50
2022-08-12T02:17:24.131Z,22.50
2022-08-12T02:20:12.351Z,22.50
2022-08-12T02:22:44.187Z,22.50
2022-08-12T02:25:13.410Z,22.50
2022-08-12T02:27:41.788Z,22.60
2022-08-12T02:30:10.247Z,22.60
2022-08-12T02:32:39.166Z,22.70
2022-08-12T02:35:10.374Z,22.70
2022-08-12T02:37:39.603Z,22.70
2022-08-12T02:40:12.196Z,22.70
2022-08-12T02:42:43.751Z,22.70
2022-08-12T02:45:12.178Z,22.70
2022-08-12T02:47:59.943Z,22.70
2022-08-12T02:50:29.412Z,22.70
2022-08-12T02:52:57.211Z,22.80
2022-08-12T02:55:28.774Z,22.80
2022-08-12T02:58:01.128Z,22.80
2022-08-12T03:00:34.223Z,22.70
2022-08-12T03:03:04.682Z,22.70
2022-08-12T03:05:33.018Z,22.70
2022-08-12T03:08:19.103Z,22.70
2022-08-12T03:11:03.442Z,22.70
2022-08-12T03:13:33.426Z,22.70
2022-08-12T03:16:00.466Z,22.70
2022-08-12T03:18:31.559Z,22.70
2022-08-12T03:20:59.682Z,22.70
2022-08-12T03:23:30.078Z,22.70
2022-08-12T03:26:01.805Z,22.80
2022-08-12T03:28:48.614Z,22.80
2022-08-12T03:31:15.406Z,22.80
2022-08-12T03:34:00.372Z,22.80
2022-08-12T03:36:35.076Z,22.90
2022-08-12T03:39:17.640Z,22.90
2022-08-12T03:41:53.982Z,22.90
2022-08-12T03:44:50.844Z,23.00
2022-08-12T03:47:40.033Z,22.90
2022-08-12T03:50:25.515Z,22.90
2022-08-12T03:53:11.150Z,22.80
2022-08-12T03:55:56.559Z,22.80
2022-08-12T03:58:41.640Z,22.70
2022-08-12T04:01:08.521Z,22.60
2022-08-12T04:03:54.054Z,22.50
2022-08-12T04:06:35.191Z,22.40
2022-08-12T04:09:05.250Z,22.40
2022-08-12T04:12:01.079Z,22.30
2022-08-12T04:14:28.209Z,22.30
2022-08-12T04:16:56.289Z,22.20
2022-08-12T04:19:25.299Z,22.20
2022-08-12T04:22:02.499Z,22.10
2022-08-12T04:24:36.778Z,22.10
2022-08-12T04:27:09.075Z,22.10
2022-08-12T04:30:30.487Z,22.00
2022-08-12T04:32:26.933Z,22.00
2022-08-12T04:34:53.786Z,22.00
2022-08-12T04:37:20.726Z,21.90
2022-08-12T04:39:48.395Z,21.90
2022-08-12T04:42:16.310Z,21.80
2022-08-12T04:44:43.416Z,21.70
2022-08-12T04:47:14.478Z,21.60
2022-08-12T04:49:41.400Z,21.40
2022-08-12T04:52:08.460Z,21.30
2022-08-12T04:54:35.377Z,21.20
2022-08-12T04:57:03.944Z,21.10
2022-08-12T04:59:48.384Z,21.10
2022-08-12T05:02:21.969Z,21.00
2022-08-12T05:04:55.756Z,21.00
2022-08-12T05:07:23.512Z,21.00
2022-08-12T05:10:00.795Z,21.00
2022-08-12T05:12:38.062Z,21.10
2022-08-12T05:15:19.320Z,21.10
2022-08-12T05:17:52.442Z,21.20
2022-08-12T05:20:22.726Z,21.20
2022-08-12T05:22:50.056Z,21.20
2022-08-12T05:25:21.323Z,21.30
2022-08-12T05:27:55.513Z,21.30
2022-08-12T05:30:25.686Z,21.40
2022-08-12T05:32:53.780Z,21.50
2022-08-12T05:35:22.452Z,21.50
2022-08-12T05:38:09.826Z,21.50
2022-08-12T05:40:36.725Z,21.50
2022-08-12T05:43:03.880Z,21.50
2022-08-12T05:45:30.608Z,21.50
2022-08-12T05:47:57.324Z,21.50
2022-08-12T05:50:24.483Z,21.60
2022-08-12T05:52:53.023Z,21.60
2022-08-12T05:55:20.939Z,21.60
2022-08-12T05:57:52.605Z,21.70
2022-08-12T06:00:21.875Z,21.80
2022-08-12T06:02:48.601Z,21.90
2022-08-12T06:05:15.533Z,21.90
2022-08-12T06:08:01.677Z,21.90
2022-08-12T06:10:32.180Z,21.90
2022-08-12T06:13:00.540Z,22.00
2022-08-12T06:15:27.298Z,22.00
2022-08-12T06:17:54.332Z,22.10
2022-08-12T06:20:25.952Z,22.20
2022-08-12T06:22:56.511Z,22.20
2022-08-12T06:25:23.363Z,22.30
2022-08-12T06:28:07.661Z,22.40
2022-08-12T06:30:39.050Z,22.40
2022-08-12T06:33:22.615Z,22.50
2022-08-12T06:35:51.366Z,22.60
2022-08-12T06:38:23.110Z,22.70
2022-08-12T06:41:10.819Z,22.80
2022-08-12T06:44:05.915Z,22.90
2022-08-12T06:46:26.368Z,23.00
2022-08-12T06:48:57.582Z,23.00
2022-08-12T06:51:29.348Z,23.10
2022-08-12T06:53:56.758Z,23.10
2022-08-12T06:56:39.883Z,23.10
2022-08-12T06:59:11.298Z,23.20
2022-08-12T07:01:38.548Z,23.30
2022-08-12T07:04:26.354Z,23.40
2022-08-12T07:06:52.191Z,23.60
2022-08-12T07:10:04.583Z,23.60
2022-08-12T07:12:05.917Z,23.70
2022-08-12T07:14:33.852Z,23.80
2022-08-12T07:17:03.837Z,23.80
2022-08-12T07:19:40.355Z,23.90
2022-08-12T07:22:13.618Z,23.90
2022-08-12T07:24:40.418Z,24.00
2022-08-12T07:27:07.395Z,24.10
2022-08-12T07:30:03.719Z,24.20
2022-08-12T07:32:25.523Z,24.20
2022-08-12T07:34:56.895Z,24.30
2022-08-12T07:37:23.798Z,24.50
2022-08-12T07:39:59.816Z,24.60
2022-08-12T07:42:28.016Z,24.80
2022-08-12T07:44:56.067Z,24.90
2022-08-12T07:47:23.200Z,25.00
2022-08-12T07:50:05.015Z,25.10
2022-08-12T07:52:34.725Z,25.20
2022-08-12T07:55:02.336Z,25.40
2022-08-12T07:57:31.699Z,25.60
2022-08-12T08:00:04.965Z,25.60
2022-08-12T08:02:37.157Z,25.70
2022-08-12T08:05:05.225Z,25.80
2022-08-12T08:07:32.013Z,25.80
2022-08-12T08:10:00.240Z,26.00
2022-08-12T08:12:46.338Z,26.10
2022-08-12T08:15:15.008Z,26.20
2022-08-12T08:17:52.455Z,26.40
2022-08-12T08:20:28.429Z,26.50
2022-08-12T08:22:56.621Z,26.70
2022-08-12T08:25:36.630Z,26.90
2022-08-12T08:28:11.566Z,27.00
2022-08-12T08:30:40.423Z,27.10
2022-08-12T08:33:23.235Z,27.20
2022-08-12T08:35:56.150Z,27.30
2022-08-12T08:38:33.049Z,27.50
2022-08-12T08:42:15.682Z,27.60
2022-08-12T08:44:11.574Z,27.80
2022-08-12T08:46:39.669Z,27.90
2022-08-12T08:49:07.018Z,28.00
2022-08-12T08:51:34.070Z,28.00
2022-08-12T08:54:00.956Z,28.10
2022-08-12T08:56:29.560Z,28.00
2022-08-12T08:58:57.699Z,28.10
2022-08-12T09:01:25.071Z,28.20
2022-08-12T09:05:07.427Z,28.40
2022-08-12T09:06:42.091Z,28.50
2022-08-12T09:09:21.237Z,28.60
2022-08-12T09:14:54.204Z,28.60
2022-08-12T09:17:22.318Z,28.40
2022-08-12T09:22:37.706Z,28.40
2022-08-12T09:25:07.037Z,28.30
2022-08-12T09:28:03.345Z,28.30
2022-08-12T09:30:41.667Z,28.30
2022-08-12T09:33:19.447Z,28.40
2022-08-12T09:36:04.550Z,28.40
2022-08-12T09:38:35.402Z,28.50
2022-08-12T09:42:08.372Z,28.50
2022-08-12T09:44:37.796Z,28.50
2022-08-12T09:46:56.227Z,28.80
2022-08-12T09:49:27.031Z,28.90
2022-08-12T09:51:55.718Z,29.00
2022-08-12T09:54:33.293Z,29.10
2022-08-12T09:58:44.740Z,29.10
2022-08-12T10:00:15.704Z,29.20
2022-08-12T10:03:06.043Z,29.40
2022-08-12T10:06:11.850Z,29.50
2022-08-12T10:08:24.506Z,29.70
2022-08-12T10:11:20.108Z,29.90
2022-08-12T10:13:48.717Z,30.00
2022-08-12T10:16:22.083Z,30.10
2022-08-12T10:18:52.744Z,30.10
2022-08-12T10:21:21.091Z,30.20
2022-08-12T10:23:51.639Z,30.30
2022-08-12T10:26:42.342Z,30.50
2022-08-12T10:30:38.175Z,30.50
2022-08-12T10:32:43.801Z,30.50
2022-08-12T10:35:08.549Z,30.60
2022-08-12T10:38:33.599Z,30.60
2022-08-12T10:40:28.483Z,30.60
2022-08-12T10:43:16.730Z,30.60
2022-08-12T10:45:44.025Z,30.40
2022-08-12T10:48:21.538Z,30.50
2022-08-12T10:50:58.665Z,30.60
2022-08-12T10:53:45.402Z,30.60
2022-08-12T10:56:16.728Z,30.50
2022-08-12T10:58:46.186Z,30.50
2022-08-12T11:01:50.118Z,30.30
2022-08-12T11:04:28.594Z,30.20
2022-08-12T11:07:07.467Z,30.00
2022-08-12T11:09:56.540Z,29.70
2022-08-12T11:12:54.986Z,29.50
2022-08-12T11:15:18.856Z,29.50
2022-08-12T11:17:53.852Z,29.30
2022-08-12T11:20:29.072Z,29.40
2022-08-12T11:22:59.499Z,29.30
2022-08-12T11:25:56.070Z,29.30
2022-08-12T11:28:14.328Z,29.40
2022-08-12T11:30:41.768Z,29.60
2022-08-12T11:33:12.281Z,29.70
2022-08-12T11:35:42.969Z,29.70
2022-08-12T11:38:10.438Z,29.80
2022-08-12T11:40:37.484Z,29.90
2022-08-12T11:43:18.864Z,30.20
2022-08-12T11:45:47.531Z,30.60
2022-08-12T11:48:15.748Z,30.90
2022-08-12T11:50:45.656Z,31.00
2022-08-12T11:53:58.859Z,31.10
2022-08-12T11:56:01.459Z,31.00
2022-08-12T11:59:44.743Z,31.00
2022-08-12T12:02:00.778Z,30.90
2022-08-12T12:04:01.984Z,31.10
2022-08-12T12:06:28.918Z,31.50
2022-08-12T12:08:55.676Z,31.80
2022-08-12T12:11:28.871Z,31.90
2022-08-12T12:14:18.103Z,31.90
2022-08-12T12:16:48.183Z,32.00
2022-08-12T12:19:19.139Z,32.10
2022-08-12T12:21:48.585Z,32.10
2022-08-12T12:24:21.983Z,32.10
2022-08-12T12:26:59.639Z,32.20
2022-08-12T12:30:19.161Z,32.40
2022-08-12T12:32:15.367Z,32.50
2022-08-12T12:35:14.333Z,32.50
2022-08-12T12:38:04.391Z,32.40
2022-08-12T12:40:16.210Z,32.20
2022-08-12T12:42:55.438Z,32.10
2022-08-12T12:45:26.106Z,32.10
2022-08-12T12:47:56.054Z,32.20
2022-08-12T12:50:35.560Z,32.40
2022-08-12T12:53:04.086Z,32.30
2022-08-12T12:55:35.469Z,32.20
2022-08-12T12:58:04.834Z,32.20
2022-08-12T13:00:36.608Z,32.10
2022-08-12T13:03:03.393Z,32.20
2022-08-12T13:05:42.150Z,32.30
2022-08-12T13:08:28.216Z,32.50
2022-08-12T13:11:04.429Z,32.80
2022-08-12T13:14:10.465Z,33.00
2022-08-12T13:16:23.338Z,33.10
2022-08-12T13:18:51.124Z,33.00
2022-08-12T13:21:33.368Z,32.80
2022-08-12T13:24:09.591Z,32.80
2022-08-12T13:26:40.086Z,33.00
2022-08-12T13:29:11.652Z,33.30
2022-08-12T13:31:46.468Z,33.30
2022-08-12T13:34:34.888Z,33.20
2022-08-12T13:37:09.188Z,32.80
2022-08-12T13:39:36.741Z,32.40
2022-08-12T13:42:14.571Z,32.10
2022-08-12T13:44:41.968Z,32.10
2022-08-12T13:47:19.548Z,32.20
2022-08-12T13:49:54.773Z,32.40
2022-08-12T13:52:23.576Z,32.60
2022-08-12T13:54:56.118Z,32.60
2022-08-12T13:57:26.396Z,32.40
2022-08-12T14:00:00.521Z,32.20
2022-08-12T14:02:28.418Z,31.80
2022-08-12T14:04:56.591Z,31.60
2022-08-12T14:07:26.067Z,31.50
2022-08-12T14:10:11.996Z,31.20
2022-08-12T14:12:54.231Z,31.00
2022-08-12T14:15:37.047Z,30.90
2022-08-12T14:18:10.241Z,31.00
2022-08-12T14:20:40.561Z,31.10
2022-08-12T14:24:01.495Z,31.10
2022-08-12T14:26:00.737Z,31.10
2022-08-12T14:28:28.690Z,31.00
2022-08-12T14:30:59.606Z,30.90
2022-08-12T14:33:30.036Z,31.00
2022-08-12T14:36:12.973Z,31.00
2022-08-12T14:38:46.161Z,31.20
2022-08-12T14:41:13.952Z,31.30
2022-08-12T14:43:59.297Z,31.40
2022-08-12T14:46:29.411Z,31.70
2022-08-12T14:48:56.523Z,32.00
2022-08-12T14:52:43.905Z,32.20
2022-08-12T14:56:59.473Z,32.50
2022-08-12T14:57:20.570Z,32.50
2022-08-12T15:00:03.837Z,32.40
2022-08-12T15:02:30.833Z,32.10
2022-08-12T15:05:01.044Z,31.70
2022-08-12T15:07:33.569Z,31.60
2022-08-12T15:10:32.515Z,31.60
2022-08-12T15:13:07.513Z,31.60
2022-08-12T15:15:43.730Z,31.50
2022-08-12T15:18:14.140Z,31.40
2022-08-12T15:20:41.467Z,31.20
2022-08-12T15:23:17.698Z,31.00
2022-08-12T15:25:49.614Z,30.80
2022-08-12T15:28:28.838Z,30.70
2022-08-12T15:30:58.087Z,30.40
2022-08-12T15:33:26.491Z,30.20
2022-08-12T15:36:13.223Z,30.10
2022-08-12T15:38:40.006Z,30.10
2022-08-12T15:41:06.855Z,30.10
2022-08-12T15:44:16.144Z,30.10
2022-08-12T15:46:25.799Z,30.00
2022-08-12T15:48:52.655Z,30.10
2022-08-12T15:51:58.269Z,30.00
2022-08-12T15:54:33.543Z,30.10
2022-08-12T15:57:05.520Z,30.00
2022-08-12T16:00:00.409Z,30.00
2022-08-12T16:02:19.811Z,30.00
2022-08-12T16:04:50.521Z,30.00
2022-08-12T16:07:30.206Z,30.00
2022-08-12T16:10:06.817Z,30.10
2022-08-12T16:12:39.718Z,30.20
2022-08-12T16:15:07.151Z,30.10
2022-08-12T16:18:14.877Z,30.00
2022-08-12T16:20:33.279Z,29.90
2022-08-12T16:23:50.929Z,29.90
2022-08-12T16:26:05.370Z,29.90
2022-08-12T16:28:33.253Z,29.80
2022-08-12T16:31:00.345Z,29.70
2022-08-12T16:33:35.665Z,29.70
2022-08-12T16:36:04.626Z,29.70
2022-08-12T16:38:31.716Z,29.70
2022-08-12T16:40:58.716Z,29.80
2022-08-12T16:43:28.179Z,29.70
2022-08-12T16:46:07.955Z,29.70
2022-08-12T16:48:44.700Z,29.70
2022-08-12T16:51:13.387Z,29.70
2022-08-12T16:53:43.286Z,29.70
2022-08-12T16:56:12.492Z,29.70
2022-08-12T16:58:40.190Z,29.70
2022-08-12T17:01:11.982Z,29.50
2022-08-12T17:03:47.032Z,29.40
2022-08-12T17:06:22.649Z,29.30
2022-08-12T17:09:02.791Z,29.30
2022-08-12T17:11:31.040Z,29.10
2022-08-12T17:13:59.126Z,29.00
2022-08-12T17:16:30.033Z,28.80
2022-08-12T17:18:59.719Z,28.60
2022-08-12T17:21:41.029Z,28.50
2022-08-12T17:24:30.573Z,28.40
2022-08-12T17:26:58.840Z,28.30
2022-08-12T17:30:00.146Z,28.30
2022-08-12T17:32:14.437Z,28.20
2022-08-12T17:35:00.463Z,28.30
2022-08-12T17:37:27.633Z,28.30
2022-08-12T17:40:12.531Z,28.40
2022-08-12T17:42:43.674Z,28.40
2022-08-12T17:45:19.482Z,28.40
2022-08-12T17:48:01.904Z,28.40
2022-08-12T17:50:38.138Z,28.40
2022-08-12T17:53:07.994Z,28.30
2022-08-12T17:55:47.859Z,28.20
2022-08-12T17:58:16.370Z,28.10
2022-08-12T18:00:45.501Z,28.10
2022-08-12T18:04:04.231Z,28.00
2022-08-12T18:06:08.544Z,27.90
2022-08-12T18:08:43.438Z,27.90
2022-08-12T18:12:05.568Z,27.80
2022-08-12T18:14:28.662Z,27.80
2022-08-12T18:16:57.670Z,27.70
2022-08-12T18:19:28.795Z,27.60
2022-08-12T18:22:16.816Z,27.50
2022-08-12T18:24:44.508Z,27.40
2022-08-12T18:27:28.059Z,27.40
2022-08-12T18:29:57.446Z,27.30
2022-08-12T18:32:44.697Z,27.30
2022-08-12T18:35:19.459Z,27.30
2022-08-12T18:37:57.229Z,27.30
2022-08-12T18:40:43.016Z,27.20
2022-08-12T18:43:15.202Z,27.20
2022-08-12T18:45:46.992Z,27.10
2022-08-12T18:48:24.875Z,27.10
2022-08-12T18:51:04.441Z,27.10
2022-08-12T18:54:05.399Z,27.10
2022-08-12T18:56:33.537Z,27.00
2022-08-12T18:59:01.726Z,26.90
2022-08-12T19:02:19.335Z,26.80
2022-08-12T19:04:17.380Z,26.80
2022-08-12T19:06:46.393Z,26.70
2022-08-12T19:09:14.902Z,26.60
2022-08-12T19:12:00.385Z,26.60
2022-08-12T19:14:32.852Z,26.50
2022-08-12T19:17:05.153Z,26.40
2022-08-12T19:19:37.401Z,26.40
2022-08-12T19:22:08.980Z,26.30
2022-08-12T19:24:54.302Z,26.30
2022-08-12T19:27:21.579Z,26.20
2022-08-12T19:30:06.121Z,26.20
2022-08-12T19:32:34.180Z,26.10
2022-08-12T19:38:06.494Z,26.00
2022-08-12T19:40:35.165Z,26.10
2022-08-12T19:43:17.878Z,26.10
2022-08-12T19:45:50.418Z,26.10
2022-08-12T19:48:19.466Z,26.10
2022-08-12T19:50:50.399Z,26.10
2022-08-12T19:53:20.205Z,26.10
2022-08-12T19:55:52.573Z,26.10
2022-08-12T19:58:20.569Z,26.10
2022-08-12T20:00:53.330Z,26.10
2022-08-12T20:03:38.606Z,26.10
2022-08-12T20:06:08.752Z,26.10
2022-08-12T20:08:40.733Z,26.00
2022-08-12T20:12:12.969Z,25.90
2022-08-12T20:14:04.033Z,25.80
2022-08-12T20:16:57.575Z,25.80
2022-08-12T20:19:53.318Z,25.80
2022-08-12T20:22:14.560Z,25.70
2022-08-12T20:24:42.479Z,25.80
2022-08-12T20:27:10.420Z,25.80
2022-08-12T20:29:57.193Z,25.80
2022-08-12T20:32:29.670Z,25.90
2022-08-12T20:35:13.040Z,25.90
2022-08-12T20:38:07.619Z,25.90
2022-08-12T20:40:38.125Z,25.90
2022-08-12T20:43:06.467Z,25.90
2022-08-12T20:45:44.670Z,25.90
2022-08-12T20:48:17.627Z,25.90
2022-08-12T20:50:47.636Z,25.90
2022-08-12T20:53:33.238Z,25.80
2022-08-12T20:56:31.011Z,25.80
2022-08-12T20:59:00.067Z,25.80
2022-08-12T21:01:29.061Z,25.80
2022-08-12T21:04:33.747Z,25.70
2022-08-12T21:07:08.146Z,25.70
2022-08-12T21:09:40.774Z,25.60
2022-08-12T21:12:27.631Z,25.60
2022-08-12T21:15:00.738Z,25.40
2022-08-12T21:18:08.933Z,25.40
2022-08-12T21:20:32.669Z,25.20
2022-08-12T21:22:59.487Z,25.00
2022-08-12T21:25:44.626Z,24.90
2022-08-12T21:28:20.698Z,24.80
2022-08-12T21:31:11.246Z,24.70
2022-08-12T21:33:58.869Z,24.60
2022-08-12T21:36:32.432Z,24.60
2022-08-12T21:39:18.898Z,24.50
2022-08-12T21:41:50.259Z,24.50
2022-08-12T21:44:24.080Z,24.40
2022-08-12T21:47:19.561Z,24.40
2022-08-12T21:49:55.639Z,24.20
2022-08-12T21:52:34.816Z,24.20
2022-08-12T21:55:08.419Z,24.20
2022-08-12T21:57:50.565Z,24.10
2022-08-12T22:00:19.933Z,24.00
2022-08-12T22:03:05.219Z,24.00
2022-08-12T22:05:50.411Z,23.90
2022-08-12T22:08:22.226Z,23.90
2022-08-12T22:10:52.632Z,23.80
2022-08-12T22:14:02.010Z,23.80
2022-08-12T22:16:10.906Z,23.80
2022-08-12T22:18:40.139Z,23.70
2022-08-12T22:21:07.157Z,23.60
2022-08-12T22:23:51.811Z,23.60
2022-08-12T22:26:29.134Z,23.60
2022-08-12T22:29:22.430Z,23.60
2022-08-12T22:31:49.587Z,23.50
2022-08-12T22:34:18.365Z,23.50
2022-08-12T22:36:45.743Z,23.40
2022-08-12T22:39:15.718Z,23.40
2022-08-12T22:42:02.143Z,23.30
2022-08-12T22:44:54.492Z,23.40
2022-08-12T22:47:53.848Z,23.30
2022-08-12T22:50:27.778Z,23.30
2022-08-12T22:53:14.654Z,23.30
2022-08-12T22:56:00.159Z,23.30
2022-08-12T22:58:33.839Z,23.30
2022-08-12T23:01:02.385Z,23.30
2022-08-12T23:03:49.037Z,23.30
2022-08-12T23:06:23.231Z,23.30
2022-08-12T23:08:50.812Z,23.30
2022-08-12T23:11:23.906Z,23.30
2022-08-12T23:13:54.679Z,23.30
2022-08-12T23:16:31.042Z,23.20
2022-08-12T23:19:01.453Z,23.20
2022-08-12T23:22:03.371Z,23.20
2022-08-12T23:24:28.289Z,23.20
2022-08-12T23:27:14.279Z,23.20
2022-08-12T23:29:43.479Z,23.20
2022-08-12T23:32:13.522Z,23.20
2022-08-12T23:35:02.634Z,23.20
2022-08-12T23:37:46.596Z,23.10
2022-08-12T23:40:22.002Z,23.10
2022-08-12T23:42:49.271Z,23.10
2022-08-12T23:45:20.707Z,23.10
2022-08-12T23:47:59.155Z,23.10
2022-08-12T23:50:34.434Z,23.00
2022-08-12T23:53:07.839Z,23.00
2022-08-12T23:55:45.583Z,23.00
2022-08-12T23:58:20.571Z,23.00
